Time;durP1;ratioP1;P1;durP2;ratioP2;P2;SDS_P1;SDS_P2;PMS_P1;PMS_P2;Temp;Humidity;BMP_temperature;BMP_pressure;BME280_temperature;BME280_humidity;BME280_pressure;Samples;Min_cycle;Max_cycle;Signal;HPM_P1;HPM_P2
2022/03/24 00:01:35;;;;;;;2.88;2.20;;;;;;;-148.56;100.00;61375.16;4969977;28;22140;-29
2022/03/24 00:04:00;;;;;;;3.38;2.20;;;;;;;-148.56;100.00;61375.16;4968512;28;20042;-37
2022/03/24 00:06:26;;;;;;;2.83;2.10;;;;;;;-148.56;100.00;61375.16;4972660;28;20038;-31
2022/03/24 00:08:51;;;;;;;4.63;2.28;;;;;;;-148.56;100.00;61375.16;4969627;28;20590;-32
2022/03/24 00:11:20;;;;;;;2.70;2.03;;;;;;;-148.56;100.00;61375.16;4971372;28;20162;-37
2022/03/24 00:13:46;;;;;;;2.63;2.00;;;;;;;-148.56;100.00;61375.16;4952429;28;20023;-32
2022/03/24 00:16:11;;;;;;;3.88;1.90;;;;;;;-148.56;100.00;61375.16;4971546;28;20035;-33
2022/03/24 00:18:37;;;;;;;2.35;2.03;;;;;;;-148.56;100.00;61375.16;4969616;28;20038;-36
2022/03/24 00:21:02;;;;;;;3.65;2.35;;;;;;;-148.56;100.00;61375.16;4971462;28;20085;-31
2022/03/24 00:23:28;;;;;;;5.93;2.28;;;;;;;-148.56;100.00;61375.16;4953038;28;20038;-33
2022/03/24 00:25:53;;;;;;;3.10;2.28;;;;;;;-148.56;100.00;61375.16;4970881;28;20038;-36
2022/03/24 00:28:19;;;;;;;3.08;1.85;;;;;;;-148.56;100.00;61375.16;4969104;28;20037;-35
2022/03/24 00:30:44;;;;;;;2.50;2.03;;;;;;;-148.56;100.00;61375.16;4969960;28;20034;-29
2022/03/24 00:33:10;;;;;;;3.05;2.05;;;;;;;-148.56;100.00;61375.16;4969857;28;20031;-36
2022/03/24 00:35:37;;;;;;;3.72;2.20;;;;;;;-148.56;100.00;61375.16;4968480;28;20035;-33
2022/03/24 00:38:02;;;;;;;2.30;2.10;;;;;;;-148.56;100.00;61375.16;4970115;28;20408;-31
2022/03/24 00:40:28;;;;;;;3.95;2.40;;;;;;;-148.56;100.00;61375.16;4972335;28;20038;-35
2022/03/24 00:42:53;;;;;;;3.45;2.42;;;;;;;-148.56;100.00;61375.16;4971637;28;20054;-29
2022/03/24 00:45:19;;;;;;;3.63;2.03;;;;;;;-148.56;100.00;61375.16;4969885;28;20821;-30
2022/03/24 00:47:44;;;;;;;2.92;2.25;;;;;;;-148.56;100.00;61375.16;4969271;28;20026;-37
2022/03/24 00:50:10;;;;;;;2.50;2.08;;;;;;;-148.56;100.00;61375.16;4971386;28;20034;-34
2022/03/24 00:52:41;;;;;;;2.25;1.92;;;;;;;-148.56;100.00;61375.16;4970631;28;20029;-33
2022/03/24 00:55:12;;;;;;;3.00;1.80;;;;;;;-148.56;100.00;61375.16;4968454;28;20038;-37
2022/03/24 00:57:39;;;;;;;3.22;1.90;;;;;;;-148.56;100.00;61375.16;4968752;28;20025;-36
2022/03/24 01:00:05;;;;;;;2.10;1.90;;;;;;;-148.56;100.00;61375.16;4970328;28;20501;-36
2022/03/24 01:02:31;;;;;;;3.92;2.10;;;;;;;-148.56;100.00;61375.16;4968741;28;20038;-36
2022/03/24 01:04:56;;;;;;;1.95;1.67;;;;;;;-148.56;100.00;61375.16;4969930;28;20105;-34
2022/03/24 01:07:22;;;;;;;3.08;2.00;;;;;;;-148.56;100.00;61375.16;4971063;28;20061;-33
2022/03/24 01:09:47;;;;;;;1.90;1.77;;;;;;;-148.56;100.00;61375.16;4968407;28;20027;-33
2022/03/24 01:12:13;;;;;;;5.15;1.80;;;;;;;-148.56;100.00;61375.16;4966190;28;20595;-27
2022/03/24 01:14:39;;;;;;;3.45;2.13;;;;;;;-148.56;100.00;61375.16;4970212;28;20483;-29
2022/03/24 01:17:07;;;;;;;2.85;1.77;;;;;;;-148.56;100.00;61375.16;4969020;28;20030;-35
2022/03/24 01:19:32;;;;;;;3.65;1.85;;;;;;;-148.56;100.00;61375.16;4970443;28;20022;-32
2022/03/24 01:21:58;;;;;;;3.05;2.10;;;;;;;-148.56;100.00;61375.16;4969557;28;20058;-33
2022/03/24 01:24:23;;;;;;;2.20;2.00;;;;;;;-148.56;100.00;61375.16;4961751;28;20014;-31
2022/03/24 01:26:49;;;;;;;2.30;1.88;;;;;;;-148.56;100.00;61375.16;4965578;28;20112;-34
2022/03/24 01:29:14;;;;;;;3.22;1.85;;;;;;;-148.56;100.00;61375.16;4971427;28;20023;-32
2022/03/24 01:31:42;;;;;;;2.10;1.90;;;;;;;-148.56;100.00;61375.16;4969188;28;20084;-29
2022/03/24 01:34:09;;;;;;;4.85;2.13;;;;;;;-148.56;100.00;61375.16;4968301;28;20549;-27
2022/03/24 01:36:35;;;;;;;2.30;1.92;;;;;;;-148.56;100.00;61375.16;4969850;28;20034;-33
2022/03/24 01:39:00;;;;;;;3.72;1.90;;;;;;;-148.56;100.00;61375.16;4970945;28;20513;-32
2022/03/24 01:41:25;;;;;;;2.65;2.17;;;;;;;-148.56;100.00;61375.16;4968694;28;20034;-32
2022/03/24 01:43:51;;;;;;;2.17;1.88;;;;;;;-148.56;100.00;61375.16;4968084;28;20034;-29
2022/03/24 01:46:21;;;;;;;2.28;1.80;;;;;;;-148.56;100.00;61375.16;4964488;28;20532;-32
2022/03/24 01:48:47;;;;;;;3.25;1.63;;;;;;;-148.56;100.00;61375.16;4967725;28;20038;-29
2022/03/24 01:51:13;;;;;;;3.13;1.63;;;;;;;-148.56;100.00;61375.16;4970876;28;20022;-29
2022/03/24 01:53:39;;;;;;;2.60;1.75;;;;;;;-148.56;100.00;61375.16;4970878;28;20362;-33
2022/03/24 01:56:04;;;;;;;2.50;2.00;;;;;;;-148.56;100.00;61375.16;4970291;28;20640;-30
2022/03/24 01:58:29;;;;;;;2.47;2.05;;;;;;;-148.56;100.00;61375.16;4936141;28;20026;-32
2022/03/24 02:01:21;;;;;;;3.83;2.10;;;;;;;-148.56;100.00;61375.16;4947316;28;20516;-30
2022/03/24 02:03:46;;;;;;;2.88;2.00;;;;;;;-148.56;100.00;61375.16;4939411;28;20505;-30
2022/03/24 02:06:12;;;;;;;2.80;2.10;;;;;;;-148.56;100.00;61375.16;4951772;28;20034;-34
2022/03/24 02:08:38;;;;;;;3.17;2.10;;;;;;;-148.56;100.00;61375.16;4968849;28;20034;-33
2022/03/24 02:11:03;;;;;;;2.58;1.77;;;;;;;-148.56;100.00;61375.16;4967570;28;20456;-32
2022/03/24 02:13:29;;;;;;;1.75;1.63;;;;;;;-148.56;100.00;61375.16;4967960;28;20033;-30
2022/03/24 02:15:54;;;;;;;1.70;1.60;;;;;;;-148.56;100.00;61375.16;4970170;28;20045;-33
2022/03/24 02:18:20;;;;;;;2.10;1.83;;;;;;;-148.56;100.00;61375.16;4970307;28;20866;-36
2022/03/24 02:20:47;;;;;;;2.50;1.83;;;;;;;-148.56;100.00;61375.16;4968852;28;20023;-32
2022/03/24 02:23:15;;;;;;;3.33;1.95;;;;;;;-148.56;100.00;61375.16;4970191;28;20029;-32
2022/03/24 02:25:41;;;;;;;2.75;1.92;;;;;;;-148.56;100.00;61375.16;4966690;28;20034;-34
2022/03/24 02:28:06;;;;;;;2.35;2.08;;;;;;;-148.56;100.00;61375.16;4967459;28;20090;-32
2022/03/24 02:30:32;;;;;;;2.03;1.77;;;;;;;-148.56;100.00;61375.16;4967244;28;20093;-32
2022/03/24 02:32:57;;;;;;;2.13;1.83;;;;;;;-148.56;100.00;61375.16;4964426;28;20489;-33
2022/03/24 02:35:23;;;;;;;2.00;1.65;;;;;;;-148.56;100.00;61375.16;4967908;28;20022;-33
2022/03/24 02:37:48;;;;;;;2.17;1.80;;;;;;;-148.56;100.00;61375.16;4966720;28;20038;-29
2022/03/24 02:40:14;;;;;;;2.38;1.80;;;;;;;-148.56;100.00;61375.16;4969281;28;20029;-33
2022/03/24 02:42:39;;;;;;;3.05;1.98;;;;;;;-148.56;100.00;61375.16;4966178;28;20031;-33
2022/03/24 02:45:07;;;;;;;2.83;1.90;;;;;;;-148.56;100.00;61375.16;4968543;28;20065;-31
2022/03/24 02:47:32;;;;;;;2.40;1.67;;;;;;;-148.56;100.00;61375.16;4966935;28;20456;-32
2022/03/24 02:49:58;;;;;;;2.20;1.98;;;;;;;-148.56;100.00;61375.16;4969446;28;20058;-34
2022/03/24 02:52:23;;;;;;;2.40;1.85;;;;;;;-148.56;100.00;61375.16;4968901;28;20064;-34
2022/03/24 02:54:49;;;;;;;2.00;1.80;;;;;;;-148.56;100.00;61375.16;4969867;28;20110;-30
2022/03/24 02:57:14;;;;;;;2.13;1.85;;;;;;;-148.56;100.00;61375.16;4965837;28;20088;-30
2022/03/24 02:59:40;;;;;;;4.20;1.60;;;;;;;-148.56;100.00;61375.16;4952040;28;20041;-32
2022/03/24 03:02:13;;;;;;;2.13;1.65;;;;;;;-148.56;100.00;61375.16;4968629;28;20027;-37
2022/03/24 03:04:38;;;;;;;2.60;1.92;;;;;;;-148.56;100.00;61375.16;4968896;28;20038;-33
2022/03/24 03:07:04;;;;;;;2.67;1.95;;;;;;;-148.56;100.00;61375.16;4949732;28;20452;-35
2022/03/24 03:09:31;;;;;;;2.70;1.92;;;;;;;-148.56;100.00;61375.16;4969624;28;20027;-33
2022/03/24 03:11:58;;;;;;;2.38;1.70;;;;;;;-148.56;100.00;61375.16;4971099;28;20085;-30
2022/03/24 03:14:23;;;;;;;2.88;1.67;;;;;;;-148.56;100.00;61375.16;4972754;28;20493;-31
2022/03/24 03:16:49;;;;;;;2.85;1.92;;;;;;;-148.56;100.00;61375.16;4969272;28;20070;-29
2022/03/24 03:19:17;;;;;;;2.65;1.77;;;;;;;-148.56;100.00;61375.16;4970824;28;20030;-33
2022/03/24 03:21:42;;;;;;;2.08;1.88;;;;;;;-148.56;100.00;61375.16;4949547;28;20374;-33
2022/03/24 03:24:08;;;;;;;2.15;1.90;;;;;;;-148.56;100.00;61375.16;4971344;28;20062;-29
2022/03/24 03:26:34;;;;;;;1.85;1.70;;;;;;;-148.56;100.00;61375.16;4971456;28;20084;-32
2022/03/24 03:28:59;;;;;;;2.00;1.65;;;;;;;-148.56;100.00;61375.16;4970626;28;20054;-29
2022/03/24 03:31:25;;;;;;;2.20;1.70;;;;;;;-148.56;100.00;61375.16;4972924;28;20077;-33
2022/03/24 03:33:53;;;;;;;2.53;1.67;;;;;;;-148.56;100.00;61375.16;4971414;28;20031;-34
2022/03/24 03:36:19;;;;;;;2.63;2.00;;;;;;;-148.56;100.00;61375.16;4971873;28;20023;-34
2022/03/24 03:38:47;;;;;;;1.90;1.70;;;;;;;-148.56;100.00;61375.16;4970708;28;20077;-33
2022/03/24 03:41:14;;;;;;;1.83;1.40;;;;;;;-148.56;100.00;61375.16;4970854;28;20463;-35
2022/03/24 03:43:40;;;;;;;2.88;1.70;;;;;;;-148.56;100.00;61375.16;4969413;28;20038;-32
2022/03/24 03:46:07;;;;;;;3.60;1.77;;;;;;;-148.56;100.00;61375.16;4971260;28;20042;-35
2022/03/24 03:48:33;;;;;;;2.00;1.80;;;;;;;-148.56;100.00;61375.16;4969564;28;20038;-34
2022/03/24 03:50:59;;;;;;;2.28;1.70;;;;;;;-148.56;100.00;61375.16;4970948;28;20046;-33
2022/03/24 03:53:24;;;;;;;3.70;1.77;;;;;;;-148.56;100.00;61375.16;4955478;28;20026;-34
2022/03/24 03:55:50;;;;;;;3.75;1.70;;;;;;;-148.56;100.00;61375.16;4970732;28;20042;-31
2022/03/24 03:58:15;;;;;;;1.85;1.60;;;;;;;-148.56;100.00;61375.16;4954728;28;20517;-32
2022/03/24 04:00:52;;;;;;;1.80;1.67;;;;;;;-148.56;100.00;61375.16;4973125;28;20660;-34
2022/03/24 04:03:28;;;;;;;2.28;1.73;;;;;;;-148.56;100.00;61375.16;4972489;28;20029;-31
2022/03/24 04:05:54;;;;;;;2.20;1.80;;;;;;;-148.56;100.00;61375.16;4968002;28;20030;-36
2022/03/24 04:08:20;;;;;;;1.88;1.52;;;;;;;-148.56;100.00;61375.16;4970233;28;20058;-31
2022/03/24 04:10:46;;;;;;;1.90;1.50;;;;;;;-148.56;100.00;61375.16;4971654;28;20117;-32
2022/03/24 04:13:11;;;;;;;2.13;1.52;;;;;;;-148.56;100.00;61375.16;4969920;28;20034;-32
2022/03/24 04:15:37;;;;;;;1.60;1.50;;;;;;;-148.56;100.00;61375.16;4970757;28;20905;-32
2022/03/24 04:18:03;;;;;;;1.98;1.60;;;;;;;-148.56;100.00;61375.16;4972425;28;20510;-31
2022/03/24 04:20:28;;;;;;;2.67;1.80;;;;;;;-148.56;100.00;61375.16;4970494;28;20521;-32
2022/03/24 04:22:54;;;;;;;1.45;1.35;;;;;;;-148.56;100.00;61375.16;4971021;28;20617;-31
2022/03/24 04:25:20;;;;;;;2.75;1.83;;;;;;;-148.56;100.00;61375.16;4948874;28;20469;-33
2022/03/24 04:27:46;;;;;;;1.90;1.50;;;;;;;-148.56;100.00;61375.16;4965479;28;20903;-36
2022/03/24 04:30:12;;;;;;;1.85;1.60;;;;;;;-148.56;100.00;61375.16;4951660;28;20113;-35
2022/03/24 04:32:38;;;;;;;4.00;1.60;;;;;;;-148.56;100.00;61375.16;4954631;28;20030;-32
2022/03/24 04:35:07;;;;;;;3.85;1.67;;;;;;;-148.56;100.00;61375.16;4955265;28;20053;-34
2022/03/24 04:37:33;;;;;;;2.65;1.80;;;;;;;-148.56;100.00;61375.16;4952636;28;20033;-30
2022/03/24 04:39:58;;;;;;;1.73;1.50;;;;;;;-148.56;100.00;61375.16;4955225;28;20833;-32
2022/03/24 04:42:24;;;;;;;2.50;1.60;;;;;;;-148.56;100.00;61375.16;4954715;28;20038;-34
2022/03/24 04:44:49;;;;;;;1.75;1.52;;;;;;;-148.56;100.00;61375.16;4954479;28;20601;-33
2022/03/24 04:47:15;;;;;;;3.05;1.95;;;;;;;-148.56;100.00;61375.16;4967730;28;20104;-31
2022/03/24 04:49:41;;;;;;;1.63;1.52;;;;;;;-148.56;100.00;61375.16;4969562;28;20046;-29
2022/03/24 04:52:07;;;;;;;1.92;1.58;;;;;;;-148.56;100.00;61375.16;4969008;28;20717;-29
2022/03/24 04:54:33;;;;;;;3.47;1.45;;;;;;;-148.56;100.00;61375.16;4953861;28;20039;-33
2022/03/24 04:56:58;;;;;;;1.70;1.60;;;;;;;-148.56;100.00;61375.16;4967130;28;20691;-33
2022/03/24 04:59:23;;;;;;;2.20;1.60;;;;;;;-148.56;100.00;61375.16;4969600;28;20034;-30
2022/03/24 05:01:49;;;;;;;3.13;1.60;;;;;;;-148.56;100.00;61375.16;4969216;28;20113;-29
2022/03/24 05:04:15;;;;;;;4.18;1.75;;;;;;;-148.56;100.00;61375.16;4968829;28;20034;-31
2022/03/24 05:06:41;;;;;;;2.20;1.80;;;;;;;-148.56;100.00;61375.16;4957480;28;20105;-32
2022/03/24 05:09:07;;;;;;;2.08;1.55;;;;;;;-148.56;100.00;61375.16;4970248;28;20034;-34
2022/03/24 05:11:32;;;;;;;1.48;1.35;;;;;;;-148.56;100.00;61375.16;4971979;28;20022;-32
2022/03/24 05:13:57;;;;;;;1.60;1.35;;;;;;;-148.56;100.00;61375.16;4969230;28;20030;-27
2022/03/24 05:16:23;;;;;;;2.03;1.58;;;;;;;-148.56;100.00;61375.16;4970260;28;20511;-29
2022/03/24 05:18:48;;;;;;;2.60;1.70;;;;;;;-148.56;100.00;61375.16;4969570;28;20037;-32
2022/03/24 05:21:13;;;;;;;1.73;1.60;;;;;;;-148.56;100.00;61375.16;4968631;28;20034;-32
2022/03/24 05:23:39;;;;;;;3.00;1.67;;;;;;;-148.56;100.00;61375.16;4967673;28;20027;-28
2022/03/24 05:26:04;;;;;;;1.52;1.38;;;;;;;-148.56;100.00;61375.16;4971980;28;20823;-28
2022/03/24 05:28:30;;;;;;;1.58;1.48;;;;;;;-148.56;100.00;61375.16;4970963;28;20030;-32
2022/03/24 05:30:55;;;;;;;1.77;1.58;;;;;;;-148.56;100.00;61375.16;4969132;28;20074;-30
2022/03/24 05:33:20;;;;;;;2.03;1.63;;;;;;;-148.56;100.00;61375.16;4969549;28;20619;-30
2022/03/24 05:35:46;;;;;;;1.50;1.40;;;;;;;-148.56;100.00;61375.16;4964556;28;20062;-32
2022/03/24 05:38:11;;;;;;;2.53;1.55;;;;;;;-148.56;100.00;61375.16;4967107;28;20089;-36
2022/03/24 05:40:37;;;;;;;1.80;1.50;;;;;;;-148.56;100.00;61375.16;4970044;28;20030;-32
2022/03/24 05:43:03;;;;;;;1.30;1.20;;;;;;;-148.56;100.00;61375.16;4968991;28;20034;-33
2022/03/24 05:45:28;;;;;;;1.70;1.55;;;;;;;-148.56;100.00;61375.16;4959057;28;20035;-32
2022/03/24 05:47:54;;;;;;;1.80;1.40;;;;;;;-148.56;100.00;61375.16;4951818;28;20026;-33
2022/03/24 05:50:19;;;;;;;2.90;1.70;;;;;;;-148.56;100.00;61375.16;4969580;28;20470;-30
2022/03/24 05:52:45;;;;;;;2.45;1.42;;;;;;;-148.56;100.00;61375.16;4968713;28;20623;-36
2022/03/24 05:55:11;;;;;;;1.83;1.60;;;;;;;-148.56;100.00;61375.16;4966962;28;20581;-30
2022/03/24 05:57:36;;;;;;;1.98;1.55;;;;;;;-148.56;100.00;61375.16;4951918;28;20039;-33
2022/03/24 06:00:03;;;;;;;2.35;1.73;;;;;;;-148.56;100.00;61375.16;4970394;28;20041;-32
2022/03/24 06:02:29;;;;;;;1.80;1.60;;;;;;;-148.56;100.00;61375.16;4950531;28;20029;-34
2022/03/24 06:04:54;;;;;;;1.80;1.50;;;;;;;-148.56;100.00;61375.16;4965014;28;20022;-31
2022/03/24 06:07:20;;;;;;;1.40;1.30;;;;;;;-148.56;100.00;61375.16;4950490;28;20473;-30
2022/03/24 06:09:48;;;;;;;1.90;1.35;;;;;;;-148.56;100.00;61375.16;4951722;28;20033;-33
2022/03/24 06:12:14;;;;;;;2.72;1.50;;;;;;;-148.56;100.00;61375.16;4947265;28;20038;-35
2022/03/24 06:14:40;;;;;;;1.67;1.55;;;;;;;-148.56;100.00;61375.16;4944898;28;20501;-30
2022/03/24 06:17:05;;;;;;;1.30;1.20;;;;;;;-148.56;100.00;61375.16;4969054;28;20038;-34
2022/03/24 06:19:32;;;;;;;1.50;1.25;;;;;;;-148.56;100.00;61375.16;4968000;28;20033;-29
2022/03/24 06:21:57;;;;;;;1.73;1.30;;;;;;;-148.56;100.00;61375.16;4954278;28;20030;-32
2022/03/24 06:24:22;;;;;;;1.75;1.40;;;;;;;-148.56;100.00;61375.16;4964518;28;20058;-34
2022/03/24 06:26:48;;;;;;;1.85;1.40;;;;;;;-148.56;100.00;61375.16;4967783;28;20481;-30
2022/03/24 06:29:14;;;;;;;2.10;1.42;;;;;;;-148.56;100.00;61375.16;4967841;28;20034;-34
2022/03/24 06:31:43;;;;;;;1.40;1.30;;;;;;;-148.56;100.00;61375.16;4971015;28;20041;-31
2022/03/24 06:34:08;;;;;;;2.08;1.52;;;;;;;-148.56;100.00;61375.16;4959483;28;20037;-33
2022/03/24 06:36:34;;;;;;;8.90;4.75;;;;;;;-148.56;100.00;61375.16;4949851;28;20024;-30
2022/03/24 06:39:00;;;;;;;10.48;3.58;;;;;;;-148.56;100.00;61375.16;4968698;28;20034;-35
2022/03/24 06:41:26;;;;;;;7.50;2.92;;;;;;;-148.56;100.00;61375.16;4947438;28;20022;-32
2022/03/24 06:43:55;;;;;;;3.00;1.92;;;;;;;-148.56;100.00;61375.16;4968582;28;20412;-34
2022/03/24 06:46:21;;;;;;;8.18;2.25;;;;;;;-148.56;100.00;61375.16;4967356;28;20046;-31
2022/03/24 06:48:46;;;;;;;4.85;2.08;;;;;;;-148.56;100.00;61375.16;4951822;28;20030;-35
2022/03/24 06:51:12;;;;;;;4.97;2.05;;;;;;;-148.56;100.00;61375.16;4968514;28;20030;-33
2022/03/24 06:53:37;;;;;;;3.40;1.88;;;;;;;-148.56;100.00;61375.16;4968670;28;20034;-32
2022/03/24 06:56:05;;;;;;;2.55;1.70;;;;;;;-148.56;100.00;61375.16;4966109;28;20034;-30
2022/03/24 06:58:30;;;;;;;3.30;1.80;;;;;;;-148.56;100.00;61375.16;4964346;28;20492;-32
2022/03/24 07:00:55;;;;;;;6.10;2.08;;;;;;;-148.56;100.00;61375.16;4967403;28;20034;-33
2022/03/24 07:03:21;;;;;;;2.00;1.65;;;;;;;-148.56;100.00;61375.16;4967415;28;20011;-36
2022/03/24 07:05:46;;;;;;;3.05;1.83;;;;;;;-148.56;100.00;61375.16;4967764;28;20038;-35
2022/03/24 07:08:12;;;;;;;3.42;2.30;;;;;;;-148.56;100.00;61375.16;4960717;28;20486;-35
2022/03/24 07:10:37;;;;;;;2.60;2.28;;;;;;;-148.56;100.00;61375.16;4966312;28;20029;-36
2022/03/24 07:13:03;;;;;;;4.20;2.05;;;;;;;-148.56;100.00;61375.16;4965546;28;20058;-34
2022/03/24 07:15:29;;;;;;;12.10;3.70;;;;;;;-148.56;100.00;61375.16;4959349;28;20026;-28
2022/03/24 07:17:54;;;;;;;9.25;2.92;;;;;;;-148.56;100.00;61375.16;4964137;28;20031;-31
2022/03/24 07:20:21;;;;;;;7.13;3.15;;;;;;;-148.56;100.00;61375.16;4962937;28;20026;-32
2022/03/24 07:22:47;;;;;;;14.38;3.28;;;;;;;-148.56;100.00;61375.16;4964799;28;20041;-34
2022/03/24 07:25:12;;;;;;;11.85;3.60;;;;;;;-148.56;100.00;61375.16;4960694;28;20992;-30
2022/03/24 07:27:38;;;;;;;10.15;3.45;;;;;;;-148.56;100.00;61375.16;4955608;28;20117;-32
2022/03/24 07:30:03;;;;;;;11.30;3.90;;;;;;;-148.56;100.00;61375.16;4957091;28;20608;-32
2022/03/24 07:32:29;;;;;;;12.45;3.75;;;;;;;-148.56;100.00;61375.16;4965498;28;20038;-35
2022/03/24 07:34:54;;;;;;;14.18;4.20;;;;;;;-148.56;100.00;61375.16;4941550;28;20070;-33
2022/03/24 07:37:20;;;;;;;11.43;3.80;;;;;;;-148.56;100.00;61375.16;4932853;28;20027;-34
2022/03/24 07:39:45;;;;;;;11.82;3.83;;;;;;;-148.56;100.00;61375.16;4967177;28;20034;-34
2022/03/24 07:42:11;;;;;;;13.77;4.22;;;;;;;-148.56;100.00;61375.16;4968092;28;20026;-36
2022/03/24 07:44:36;;;;;;;11.25;3.90;;;;;;;-148.56;100.00;61375.16;4968684;28;20023;-36
2022/03/24 07:47:02;;;;;;;8.50;3.83;;;;;;;-148.56;100.00;61375.16;4966851;28;20128;-32
2022/03/24 07:49:28;;;;;;;11.55;4.30;;;;;;;-148.56;100.00;61375.16;4967812;28;20034;-31
2022/03/24 07:51:54;;;;;;;19.63;4.07;;;;;;;-148.56;100.00;61375.16;4968846;28;20430;-34
2022/03/24 07:54:38;;;;;;;8.30;4.13;;;;;;;-148.56;100.00;61375.16;4964686;28;20030;-36
2022/03/24 07:57:05;;;;;;;13.73;4.05;;;;;;;-148.56;100.00;61375.16;4968640;28;20030;-31
2022/03/24 07:59:30;;;;;;;8.88;3.90;;;;;;;-148.56;100.00;61375.16;4973054;28;20789;-30
2022/03/24 08:01:55;;;;;;;7.93;3.50;;;;;;;-148.56;100.00;61375.16;4973402;28;20088;-34
2022/03/24 08:04:21;;;;;;;9.93;3.85;;;;;;;-148.56;100.00;61375.16;4968303;28;20050;-31
2022/03/24 08:06:46;;;;;;;9.48;4.25;;;;;;;-148.56;100.00;61375.16;4965275;28;20031;-32
2022/03/24 08:09:12;;;;;;;11.82;4.57;;;;;;;-148.56;100.00;61375.16;4970344;28;20031;-32
2022/03/24 08:11:37;;;;;;;10.63;4.95;;;;;;;-148.56;100.00;61375.16;4969598;28;20023;-32
2022/03/24 08:14:03;;;;;;;7.22;4.60;;;;;;;-148.56;100.00;61375.16;4966541;28;20098;-33
2022/03/24 08:16:30;;;;;;;11.85;5.30;;;;;;;-148.56;100.00;61375.16;4971282;28;20022;-33
2022/03/24 08:18:55;;;;;;;9.27;5.07;;;;;;;-148.56;100.00;61375.16;4971250;28;20774;-30
2022/03/24 08:21:21;;;;;;;9.45;5.18;;;;;;;-148.56;100.00;61375.16;4970925;28;20038;-34
2022/03/24 08:23:46;;;;;;;6.97;3.97;;;;;;;-148.56;100.00;61375.16;4970114;28;20025;-29
2022/03/24 08:26:12;;;;;;;7.78;3.40;;;;;;;-148.56;100.00;61375.16;4965893;28;20516;-32
2022/03/24 08:28:37;;;;;;;8.98;3.80;;;;;;;-148.56;100.00;61375.16;4970706;28;20432;-32
2022/03/24 08:31:03;;;;;;;7.35;3.60;;;;;;;-148.56;100.00;61375.16;4971363;28;20035;-30
2022/03/24 08:33:28;;;;;;;9.70;3.78;;;;;;;-148.56;100.00;61375.16;4971586;28;20030;-33
2022/03/24 08:35:54;;;;;;;6.40;3.42;;;;;;;-148.56;100.00;61375.16;4964942;28;20041;-32
2022/03/24 08:38:19;;;;;;;7.05;3.47;;;;;;;-148.56;100.00;61375.16;4968298;28;20030;-32
2022/03/24 08:40:45;;;;;;;5.05;3.13;;;;;;;-148.56;100.00;61375.16;4972961;28;20089;-31
2022/03/24 08:43:10;;;;;;;8.25;3.25;;;;;;;-148.56;100.00;61375.16;4972774;28;20010;-34
2022/03/24 08:45:36;;;;;;;10.32;3.47;;;;;;;-148.56;100.00;61375.16;4968513;28;20030;-34
2022/03/24 08:48:02;;;;;;;11.45;3.63;;;;;;;-148.56;100.00;61375.16;4968692;28;20537;-33
2022/03/24 08:50:27;;;;;;;6.57;3.30;;;;;;;-148.56;100.00;61375.16;4967795;28;20026;-31
2022/03/24 08:52:53;;;;;;;9.57;3.40;;;;;;;-148.56;100.00;61375.16;4968107;28;20029;-36
2022/03/24 08:55:19;;;;;;;6.43;2.80;;;;;;;-148.56;100.00;61375.16;4950205;28;20038;-31
2022/03/24 08:57:45;;;;;;;7.95;3.00;;;;;;;-148.56;100.00;61375.16;4964803;28;20026;-33
2022/03/24 09:00:12;;;;;;;25.00;9.80;;;;;;;-148.56;100.00;61375.16;4965395;28;20034;-38
2022/03/24 09:02:42;;;;;;;34.15;11.23;;;;;;;-148.56;100.00;61375.16;4958863;28;20899;-33
2022/03/24 09:05:08;;;;;;;24.70;10.45;;;;;;;-148.56;100.00;61375.16;4966286;28;20030;-29
2022/03/24 09:07:33;;;;;;;16.85;11.00;;;;;;;-148.56;100.00;61375.16;4967683;28;20026;-32
2022/03/24 09:09:59;;;;;;;18.75;11.68;;;;;;;-148.56;100.00;61375.16;4963789;28;20065;-29
2022/03/24 09:12:24;;;;;;;21.55;11.68;;;;;;;-148.56;100.00;61375.16;4960555;28;20058;-31
2022/03/24 09:14:50;;;;;;;23.55;11.30;;;;;;;-148.56;100.00;61375.16;4962380;28;20070;-28
2022/03/24 09:17:15;;;;;;;17.63;11.00;;;;;;;-148.56;100.00;61375.16;4948235;28;20859;-28
2022/03/24 09:19:41;;;;;;;14.43;10.57;;;;;;;-148.56;100.00;61375.16;4967483;28;20117;-31
2022/03/24 09:22:06;;;;;;;17.80;9.52;;;;;;;-148.56;100.00;61375.16;4962947;28;20038;-29
2022/03/24 09:24:32;;;;;;;12.13;7.60;;;;;;;-148.56;100.00;61375.16;4960727;28;20023;-29
2022/03/24 09:26:57;;;;;;;11.25;6.57;;;;;;;-148.56;100.00;61375.16;4958345;28;20201;-30
2022/03/24 09:29:23;;;;;;;13.20;5.93;;;;;;;-148.56;100.00;61375.16;4961852;28;20033;-32
2022/03/24 09:31:49;;;;;;;9.82;5.68;;;;;;;-148.56;100.00;61375.16;4965242;28;20049;-34
2022/03/24 09:34:14;;;;;;;9.05;5.20;;;;;;;-148.56;100.00;61375.16;4968226;28;20055;-30
2022/03/24 09:36:40;;;;;;;11.40;5.30;;;;;;;-148.56;100.00;61375.16;4967314;28;20034;-33
2022/03/24 09:39:05;;;;;;;10.77;6.15;;;;;;;-148.56;100.00;61375.16;4968413;28;20026;-32
2022/03/24 09:41:31;;;;;;;21.27;8.65;;;;;;;-148.56;100.00;61375.16;4960172;28;20084;-30
2022/03/24 09:43:58;;;;;;;29.42;8.30;;;;;;;-148.56;100.00;61375.16;4963109;28;20038;-31
2022/03/24 09:46:24;;;;;;;24.10;8.55;;;;;;;-148.56;100.00;61375.16;4950491;28;20100;-31
2022/03/24 09:48:49;;;;;;;26.40;11.75;;;;;;;-148.56;100.00;61375.16;4930369;28;20712;-31
2022/03/24 09:51:15;;;;;;;38.85;11.23;;;;;;;-148.56;100.00;61375.16;4965863;28;20037;-29
2022/03/24 09:53:41;;;;;;;29.50;10.13;;;;;;;-148.56;100.00;61375.16;4963891;28;20027;-32
2022/03/24 09:56:06;;;;;;;25.73;10.77;;;;;;;-148.56;100.00;61375.16;4968914;28;20489;-34
2022/03/24 09:58:32;;;;;;;37.67;10.75;;;;;;;-148.56;100.00;61375.16;4964086;28;20041;-32
2022/03/24 10:00:57;;;;;;;23.35;9.52;;;;;;;-148.56;100.00;61375.16;4964103;28;20061;-31
2022/03/24 10:03:22;;;;;;;25.33;8.70;;;;;;;-148.56;100.00;61375.16;4947284;28;20784;-34
2022/03/24 10:06:07;;;;;;;19.75;9.30;;;;;;;-148.56;100.00;61375.16;4968407;28;20093;-34
2022/03/24 10:08:32;;;;;;;17.55;9.77;;;;;;;-148.56;100.00;61375.16;4967710;28;20061;-33
2022/03/24 10:10:59;;;;;;;24.67;9.73;;;;;;;-148.56;100.00;61375.16;4960483;28;20998;-36
2022/03/24 10:13:45;;;;;;;17.70;6.10;;;;;;;-148.56;100.00;61375.16;4961885;28;20034;-32
2022/03/24 10:16:13;;;;;;;10.02;5.60;;;;;;;-148.56;100.00;61375.16;4956033;28;20047;-27
2022/03/24 10:18:55;;;;;;;14.88;5.50;;;;;;;-148.56;100.00;61375.16;4960868;28;20046;-33
2022/03/24 10:21:22;;;;;;;15.73;5.68;;;;;;;-148.56;100.00;61375.16;4950369;28;20038;-34
2022/03/24 10:23:48;;;;;;;13.75;5.50;;;;;;;-148.56;100.00;61375.16;4963299;28;20270;-33
2022/03/24 10:26:13;;;;;;;11.02;5.40;;;;;;;-148.56;100.00;61375.16;4965086;28;20037;-30
2022/03/24 10:28:39;;;;;;;16.38;5.65;;;;;;;-148.56;100.00;61375.16;4967268;28;20031;-31
2022/03/24 10:31:04;;;;;;;15.82;5.47;;;;;;;-148.56;100.00;61375.16;4933424;28;20046;-34
2022/03/24 10:33:36;;;;;;;20.38;5.53;;;;;;;-148.56;100.00;61375.16;4939919;28;20034;-33
2022/03/24 10:36:19;;;;;;;11.77;5.50;;;;;;;-148.56;100.00;61375.16;4969519;28;20034;-32
2022/03/24 10:38:50;;;;;;;15.18;5.10;;;;;;;-148.56;100.00;61375.16;4966861;28;20026;-30
2022/03/24 10:41:18;;;;;;;16.23;4.95;;;;;;;-148.56;100.00;61375.16;4968939;28;20034;-32
2022/03/24 10:43:43;;;;;;;16.27;5.20;;;;;;;-148.56;100.00;61375.16;4964328;28;20026;-36
2022/03/24 10:46:14;;;;;;;9.68;4.30;;;;;;;-148.56;100.00;61375.16;4950007;28;20259;-32
2022/03/24 10:48:39;;;;;;;19.50;5.05;;;;;;;-148.56;100.00;61375.16;4960020;28;20142;-33
2022/03/24 10:51:05;;;;;;;9.85;4.30;;;;;;;-148.56;100.00;61375.16;4966809;28;20673;-33
2022/03/24 10:53:38;;;;;;;12.10;5.20;;;;;;;-148.56;100.00;61375.16;4966543;28;20033;-32
2022/03/24 10:56:07;;;;;;;11.63;4.30;;;;;;;-148.56;100.00;61375.16;4968730;28;20114;-35
2022/03/24 10:58:35;;;;;;;7.60;4.90;;;;;;;-148.56;100.00;61375.16;4967630;28;20058;-35
2022/03/24 11:01:02;;;;;;;10.55;4.53;;;;;;;-148.56;100.00;61375.16;4965942;28;20042;-33
2022/03/24 11:03:27;;;;;;;8.32;4.20;;;;;;;-148.56;100.00;61375.16;4951967;28;20100;-31